createdAt,value
2023-02-12T00:00:21.762Z,97568.41
2023-02-12T00:05:23.412Z,97554.66
2023-02-12T00:10:25.462Z,97559.00
2023-02-12T00:15:27.029Z,97545.22
2023-02-12T00:20:28.484Z,97553.84
2023-02-12T00:25:30.121Z,97556.63
2023-02-12T00:30:31.606Z,97548.53
2023-02-12T00:35:34.281Z,97555.63
2023-02-12T00:40:35.773Z,97560.06
2023-02-12T00:45:37.686Z,97563.56
2023-02-12T00:50:39.385Z,97565.25
2023-02-12T00:55:41.442Z,97553.78
2023-02-12T01:00:43.743Z,97560.50
2023-02-12T01:05:45.251Z,97560.50
2023-02-12T01:10:55.965Z,97548.22
2023-02-12T01:16:27.138Z,97538.94
2023-02-12T01:21:31.258Z,97540.66
2023-02-12T01:26:33.412Z,97548.59
2023-02-12T01:31:38.407Z,97545.09
2023-02-12T01:36:40.041Z,97551.53
2023-02-12T01:41:44.318Z,97550.94
2023-02-12T01:46:58.493Z,97543.03
2023-02-12T01:52:28.311Z,97536.91
2023-02-12T01:57:32.925Z,97532.38
2023-02-12T02:02:34.999Z,97521.84
2023-02-12T02:07:36.575Z,97518.78
2023-02-12T02:12:39.620Z,97516.09
2023-02-12T02:17:52.454Z,97530.50
2023-02-12T02:23:06.164Z,97527.19
2023-02-12T02:28:45.844Z,97529.81
2023-02-12T02:34:07.953Z,97530.78
2023-02-12T02:39:28.393Z,97522.97
2023-02-12T02:44:37.762Z,97523.63
2023-02-12T02:49:45.821Z,97518.75
2023-02-12T02:54:56.303Z,97515.16
2023-02-12T03:00:12.800Z,97525.13
2023-02-12T03:05:27.405Z,97518.47
2023-02-12T03:10:34.443Z,97517.16
2023-02-12T03:15:41.515Z,97519.88
2023-02-12T03:20:48.651Z,97529.97
2023-02-12T03:25:57.819Z,97529.38
2023-02-12T03:31:11.925Z,97530.91
2023-02-12T03:36:26.125Z,97513.13
2023-02-12T03:41:34.462Z,97531.75
2023-02-12T03:46:51.277Z,97517.88
2023-02-12T03:51:52.814Z,97517.97
2023-02-12T03:57:00.740Z,97523.19
2023-02-12T04:02:02.581Z,97507.16
2023-02-12T04:07:04.511Z,97515.56
2023-02-12T04:12:17.845Z,97511.53
2023-02-12T04:17:26.375Z,97529.88
2023-02-12T04:22:54.568Z,97535.72
2023-02-12T04:28:11.045Z,97541.06
2023-02-12T04:33:18.163Z,97534.91
2023-02-12T04:38:25.881Z,97552.31
2023-02-12T04:43:34.766Z,97551.56
2023-02-12T04:48:53.547Z,97551.75
2023-02-12T04:53:55.006Z,97562.00
2023-02-12T04:58:56.457Z,97562.72
2023-02-12T05:03:57.969Z,97567.22
2023-02-12T05:08:59.519Z,97559.78
2023-02-12T05:14:01.090Z,97564.09
2023-02-12T05:19:02.646Z,97559.16
2023-02-12T05:24:04.746Z,97563.75
2023-02-12T05:29:06.222Z,97572.53
2023-02-12T05:34:10.938Z,97563.94
2023-02-12T05:39:12.457Z,97554.34
2023-02-12T05:44:14.002Z,97555.78
2023-02-12T05:49:15.620Z,97559.25
2023-02-12T05:54:17.159Z,97556.50
2023-02-12T05:59:22.129Z,97541.69
2023-02-12T06:04:27.140Z,97544.38
2023-02-12T06:09:28.603Z,97538.34
2023-02-12T06:14:31.899Z,97527.25
2023-02-12T06:19:34.085Z,97529.88
2023-02-12T06:24:35.581Z,97529.75
2023-02-12T06:29:37.040Z,97536.59
2023-02-12T06:34:38.482Z,97533.00
2023-02-12T06:39:39.927Z,97532.06
2023-02-12T06:44:41.372Z,97535.69
2023-02-12T06:49:42.873Z,97529.19
2023-02-12T06:54:44.322Z,97533.84
2023-02-12T06:59:45.826Z,97539.91
2023-02-12T07:04:47.384Z,97546.84
2023-02-12T07:09:49.015Z,97545.88
2023-02-12T07:14:50.485Z,97545.34
2023-02-12T07:19:51.996Z,97548.59
2023-02-12T07:24:53.463Z,97539.84
2023-02-12T07:29:54.988Z,97545.78
2023-02-12T07:34:56.521Z,97552.41
2023-02-12T07:39:59.079Z,97549.72
2023-02-12T07:45:00.587Z,97552.78
2023-02-12T07:50:02.083Z,97554.16
2023-02-12T07:55:03.581Z,97556.94
2023-02-12T08:00:05.983Z,97552.81
2023-02-12T08:05:13.561Z,97548.34
2023-02-12T08:10:15.236Z,97548.41
2023-02-12T08:15:19.511Z,97545.66
2023-02-12T08:20:20.985Z,97550.34
2023-02-12T08:25:22.474Z,97556.25
2023-02-12T08:30:23.927Z,97548.00
2023-02-12T08:35:25.386Z,97552.69
2023-02-12T08:40:26.912Z,97546.69
2023-02-12T08:45:28.390Z,97540.50
2023-02-12T08:50:29.866Z,97548.34
2023-02-12T08:55:31.337Z,97545.09
2023-02-12T09:00:32.796Z,97536.22
2023-02-12T09:05:38.707Z,97537.91
2023-02-12T09:10:44.481Z,97520.50
2023-02-12T09:15:46.155Z,97514.94
2023-02-12T09:20:47.680Z,97503.59
2023-02-12T09:25:49.413Z,97500.41
2023-02-12T09:30:50.989Z,97498.94
2023-02-12T09:35:52.606Z,97500.41
2023-02-12T09:40:54.004Z,97500.41
2023-02-12T09:46:05.216Z,97493.78
2023-02-12T09:51:09.829Z,97496.03
2023-02-12T09:56:14.349Z,97488.31
2023-02-12T10:01:19.092Z,97485.78
2023-02-12T10:06:29.125Z,97489.63
2023-02-12T10:11:44.123Z,97492.34
2023-02-12T10:17:07.036Z,97492.59
2023-02-12T10:22:23.236Z,97481.44
2023-02-12T10:27:39.345Z,97476.66
2023-02-12T10:32:44.478Z,97470.50
2023-02-12T10:37:52.826Z,97469.22
2023-02-12T10:42:54.572Z,97468.25
2023-02-12T10:48:09.153Z,97461.44
2023-02-12T10:53:32.773Z,97459.16
2023-02-12T10:58:34.251Z,97448.13
2023-02-12T11:03:35.775Z,97440.56
2023-02-12T11:08:37.884Z,97432.59
2023-02-12T11:14:05.987Z,97427.47
2023-02-12T11:19:19.552Z,97420.44
2023-02-12T11:24:32.214Z,97415.84
2023-02-12T11:29:33.778Z,97419.72
2023-02-12T11:34:36.182Z,97411.34
2023-02-12T11:39:40.873Z,97400.88
2023-02-12T11:44:52.884Z,97402.16
2023-02-12T11:50:05.353Z,97388.34
2023-02-12T11:55:20.011Z,97395.25
2023-02-12T12:00:38.613Z,97392.56
2023-02-12T12:05:48.428Z,97391.84
2023-02-12T12:11:00.621Z,97391.50
2023-02-12T12:16:13.044Z,97383.31
2023-02-12T12:21:30.827Z,97379.09
2023-02-12T12:26:34.747Z,97374.81
2023-02-12T12:31:42.957Z,97364.25
2023-02-12T12:37:06.201Z,97359.41
2023-02-12T12:42:44.524Z,97350.34
2023-02-12T12:48:11.769Z,97355.97
2023-02-12T12:53:31.615Z,97346.13
2023-02-12T12:59:03.169Z,97340.81
2023-02-12T13:04:16.725Z,97335.13
2023-02-12T13:09:32.986Z,97330.19
2023-02-12T13:14:47.535Z,97325.84
2023-02-12T13:20:12.921Z,97333.44
2023-02-12T13:25:40.019Z,97322.38
2023-02-12T13:30:51.570Z,97326.31
2023-02-12T13:35:58.325Z,97325.41
2023-02-12T13:41:04.625Z,97316.91
2023-02-12T13:46:21.423Z,97320.97
2023-02-12T13:52:12.196Z,97323.25
2023-02-12T13:57:17.100Z,97328.41
2023-02-12T14:02:18.580Z,97325.47
2023-02-12T14:07:21.487Z,97319.66
2023-02-12T14:12:26.036Z,97315.66
2023-02-12T14:17:30.291Z,97319.03
2023-02-12T14:22:31.684Z,97315.56
2023-02-12T14:27:36.073Z,97318.44
2023-02-12T14:32:52.564Z,97315.00
2023-02-12T14:37:56.453Z,97313.78
2023-02-12T14:42:57.961Z,97318.41
2023-02-12T14:47:59.674Z,97307.66
2023-02-12T14:53:13.138Z,97307.34
2023-02-12T14:58:22.295Z,97311.28
2023-02-12T15:03:30.228Z,97307.91
2023-02-12T15:08:47.490Z,97311.81
2023-02-12T15:13:55.418Z,97308.38
2023-02-12T15:19:03.916Z,97307.41
2023-02-12T15:24:07.629Z,97305.38
2023-02-12T15:29:21.056Z,97312.41
2023-02-12T15:34:27.508Z,97307.94
2023-02-12T15:39:41.074Z,97302.69
2023-02-12T15:44:42.603Z,97298.31
2023-02-12T15:49:44.239Z,97297.34
2023-02-12T15:54:47.254Z,97293.66
2023-02-12T15:59:54.052Z,97296.13
2023-02-12T16:04:57.034Z,97286.84
2023-02-12T16:09:58.754Z,97289.69
2023-02-12T16:15:00.502Z,97291.59
2023-02-12T16:20:17.209Z,97291.44
2023-02-12T16:25:31.508Z,97289.78
2023-02-12T16:30:43.439Z,97301.53
2023-02-12T16:35:44.943Z,97309.03
2023-02-12T16:41:18.117Z,97313.34
2023-02-12T16:46:20.288Z,97317.00
2023-02-12T16:51:30.836Z,97319.78
2023-02-12T16:56:36.058Z,97329.84
2023-02-12T17:01:37.530Z,97328.16
2023-02-12T17:06:39.059Z,97338.63
2023-02-12T17:11:40.567Z,97340.50
2023-02-12T17:16:42.139Z,97342.16
2023-02-12T17:21:46.232Z,97346.59
2023-02-12T17:26:48.849Z,97354.03
2023-02-12T17:31:51.012Z,97353.63
2023-02-12T17:36:52.775Z,97355.22
2023-02-12T17:41:54.321Z,97364.97
2023-02-12T17:46:55.861Z,97365.50
2023-02-12T17:51:57.429Z,97372.25
2023-02-12T17:56:59.017Z,97378.69
2023-02-12T18:02:00.568Z,97383.84
2023-02-12T18:07:03.836Z,97379.66
2023-02-12T18:12:06.131Z,97384.22
2023-02-12T18:17:07.642Z,97385.31
2023-02-12T18:22:09.117Z,97388.47
2023-02-12T18:27:11.886Z,97380.09
2023-02-12T18:32:13.458Z,97392.78
2023-02-12T18:37:15.053Z,97384.22
2023-02-12T18:42:16.557Z,97385.16
2023-02-12T18:47:19.598Z,97380.34
2023-02-12T18:52:24.524Z,97381.94
2023-02-12T18:57:26.074Z,97393.13
2023-02-12T19:02:27.559Z,97393.13
2023-02-12T19:07:29.145Z,97387.31
2023-02-12T19:12:30.838Z,97388.63
2023-02-12T19:17:33.358Z,97388.19
2023-02-12T19:22:35.630Z,97391.75
2023-02-12T19:27:37.141Z,97385.84
2023-02-12T19:32:38.672Z,97382.72
2023-02-12T19:37:40.194Z,97385.09
2023-02-12T19:42:41.778Z,97383.78
2023-02-12T19:47:43.323Z,97380.91
2023-02-12T19:52:44.758Z,97390.88
2023-02-12T19:57:46.269Z,97395.31
2023-02-12T20:02:47.905Z,97386.31
2023-02-12T20:07:49.458Z,97393.72
2023-02-12T20:12:50.968Z,97391.25
2023-02-12T20:17:52.490Z,97383.44
2023-02-12T20:22:54.029Z,97395.53
2023-02-12T20:27:55.582Z,97395.09
2023-02-12T20:32:57.099Z,97402.28
2023-02-12T20:37:58.588Z,97399.59
2023-02-12T20:43:00.271Z,97408.44
2023-02-12T20:48:01.760Z,97413.13
2023-02-12T20:53:03.471Z,97411.00
2023-02-12T20:58:05.064Z,97410.69
2023-02-12T21:03:06.659Z,97413.97
2023-02-12T21:08:08.161Z,97415.28
2023-02-12T21:13:09.701Z,97421.78
2023-02-12T21:18:11.228Z,97425.78
2023-02-12T21:23:12.719Z,97425.19
2023-02-12T21:28:14.221Z,97426.19
2023-02-12T21:33:15.746Z,97435.09
2023-02-12T21:38:17.191Z,97431.09
2023-02-12T21:43:18.662Z,97430.81
2023-02-12T21:48:20.101Z,97438.50
2023-02-12T21:53:21.611Z,97441.06
2023-02-12T21:58:23.417Z,97439.22
2023-02-12T22:03:24.908Z,97434.28
2023-02-12T22:08:26.377Z,97447.28
2023-02-12T22:13:28.997Z,97441.47
2023-02-12T22:18:30.475Z,97450.19
2023-02-12T22:23:32.881Z,97447.28
2023-02-12T22:28:39.137Z,97445.22
2023-02-12T22:33:40.712Z,97448.41
2023-02-12T22:38:42.209Z,97457.63
2023-02-12T22:43:43.763Z,97449.09
2023-02-12T22:48:46.198Z,97459.59
2023-02-12T22:53:47.792Z,97453.22
2023-02-12T22:58:54.702Z,97459.69
2023-02-12T23:03:56.844Z,97460.66
2023-02-12T23:09:01.636Z,97458.44
2023-02-12T23:14:03.161Z,97452.38
2023-02-12T23:19:04.672Z,97458.63
2023-02-12T23:24:06.619Z,97467.25
2023-02-12T23:29:08.416Z,97466.53
2023-02-12T23:34:09.925Z,97466.50
2023-02-12T23:39:12.534Z,97468.09
2023-02-12T23:44:14.001Z,97471.69
2023-02-12T23:49:15.464Z,97476.84
2023-02-12T23:54:16.967Z,97478.44
2023-02-12T23:59:18.569Z,97474.94
